Time,TemperatureF,DewpointF,PressureIn,WindDirection,WindDirectionDegrees,WindSpeedMPH,WindSpeedGustMPH,Humidity,HourlyPrecipIn,Conditions,Clouds,dailyrainin,SoftwareType,DateUTC
2013-03-17 00:02:00,31.0,31.0,-100.00,WNW,288,42.0,54.0,100,-99.99,,,-99.99,,2013-03-17 07:02:00,
2013-03-17 00:12:00,31.0,31.0,-100.00,WNW,282,35.0,42.0,100,-99.99,,,-99.99,,2013-03-17 07:12:00,
2013-03-17 00:22:00,32.0,32.0,-100.00,West,276,33.0,42.0,100,-99.99,,,-99.99,,2013-03-17 07:22:00,
2013-03-17 00:32:00,32.0,32.0,-100.00,West,278,27.0,40.0,100,-99.99,,,-99.99,,2013-03-17 07:32:00,
2013-03-17 00:42:00,32.0,30.0,-100.00,West,280,30.0,38.0,93,-99.99,,,-99.99,,2013-03-17 07:42:00,
2013-03-17 00:52:00,32.0,30.0,-100.00,West,281,26.0,31.0,93,-99.99,,,-99.99,,2013-03-17 07:52:00,
2013-03-17 01:02:00,32.0,30.0,-100.00,West,278,24.0,32.0,90,-99.99,,,-99.99,,2013-03-17 08:02:00,
2013-03-17 01:12:00,32.0,30.0,-100.00,West,270,16.0,23.0,90,-99.99,,,-99.99,,2013-03-17 08:12:00,
2013-03-17 01:22:00,32.0,30.0,-100.00,West,278,16.0,20.0,89,-99.99,,,-99.99,,2013-03-17 08:22:00,
2013-03-17 01:32:00,32.0,30.0,-100.00,West,278,16.0,20.0,89,-99.99,,,-99.99,,2013-03-17 08:32:00,
2013-03-17 01:42:00,32.0,30.0,-100.00,West,273,19.0,25.0,91,-99.99,,,-99.99,,2013-03-17 08:42:00,
2013-03-17 01:52:00,32.0,30.0,-100.00,West,273,21.0,28.0,92,-99.99,,,-99.99,,2013-03-17 08:52:00,
2013-03-17 02:02:00,32.0,30.0,-100.00,West,269,21.0,27.0,93,-99.99,,,-99.99,,2013-03-17 09:02:00,
2013-03-17 02:12:00,32.0,31.0,-100.00,West,271,20.0,26.0,94,-99.99,,,-99.99,,2013-03-17 09:12:00,
2013-03-17 02:22:00,32.0,31.0,-100.00,West,271,20.0,28.0,95,-99.99,,,-99.99,,2013-03-17 09:22:00,
2013-03-17 02:32:00,32.0,31.0,-100.00,West,268,20.0,29.0,95,-99.99,,,-99.99,,2013-03-17 09:32:00,
2013-03-17 02:42:00,32.0,31.0,-100.00,West,271,22.0,29.0,96,-99.99,,,-99.99,,2013-03-17 09:42:00,
2013-03-17 02:53:00,32.0,31.0,-100.00,West,263,24.0,34.0,96,-99.99,,,-99.99,,2013-03-17 09:53:00,
2013-03-17 03:03:00,32.0,31.0,-100.00,West,270,24.0,30.0,96,-99.99,,,-99.99,,2013-03-17 10:03:00,
2013-03-17 03:12:00,32.0,31.0,-100.00,West,272,22.0,27.0,96,-99.99,,,-99.99,,2013-03-17 10:12:00,
2013-03-17 03:23:00,32.0,32.0,-100.00,West,276,24.0,31.0,97,-99.99,,,-99.99,,2013-03-17 10:23:00,
2013-03-17 03:33:00,32.0,31.0,-100.00,West,276,24.0,31.0,97,-99.99,,,-99.99,,2013-03-17 10:33:00,
2013-03-17 03:42:00,32.0,31.0,-100.00,West,278,26.0,32.0,96,-99.99,,,-99.99,,2013-03-17 10:42:00,
2013-03-17 04:02:00,32.0,31.0,-100.00,West,276,27.0,33.0,95,-99.99,,,-99.99,,2013-03-17 11:02:00,
2013-03-17 04:12:00,32.0,31.0,-100.00,West,279,27.0,32.0,95,-99.99,,,-99.99,,2013-03-17 11:12:00,
2013-03-17 04:22:00,32.0,31.0,-100.00,West,277,29.0,37.0,95,-99.99,,,-99.99,,2013-03-17 11:22:00,
2013-03-17 04:32:00,32.0,31.0,-100.00,West,277,29.0,37.0,95,-99.99,,,-99.99,,2013-03-17 11:32:00,
2013-03-17 04:42:00,32.0,31.0,-100.00,West,278,31.0,42.0,95,-99.99,,,-99.99,,2013-03-17 11:42:00,
2013-03-17 04:52:00,32.0,31.0,-100.00,West,280,29.0,36.0,94,-99.99,,,-99.99,,2013-03-17 11:52:00,
2013-03-17 05:02:00,32.0,30.0,-100.00,WNW,284,29.0,37.0,93,-99.99,,,-99.99,,2013-03-17 12:02:00,
2013-03-17 05:12:00,32.0,30.0,-100.00,WNW,286,29.0,34.0,91,-99.99,,,-99.99,,2013-03-17 12:12:00,
2013-03-17 05:22:00,32.0,30.0,-100.00,WNW,285,29.0,37.0,91,-99.99,,,-99.99,,2013-03-17 12:22:00,
2013-03-17 05:32:00,32.0,30.0,-100.00,WNW,293,30.0,37.0,91,-99.99,,,-99.99,,2013-03-17 12:32:00,
2013-03-17 05:42:00,33.0,30.0,-100.00,WNW,294,27.0,34.0,89,-99.99,,,-99.99,,2013-03-17 12:42:00,
2013-03-17 05:52:00,33.0,29.0,-100.00,WNW,297,27.0,38.0,87,-99.99,,,-99.99,,2013-03-17 12:52:00,
2013-03-17 06:01:00,32.0,30.0,-100.00,WNW,293,24.0,31.0,90,-99.99,,,-99.99,,2013-03-17 13:01:00,
2013-03-17 06:12:00,32.0,30.0,-100.00,WNW,296,24.0,30.0,91,-99.99,,,-99.99,,2013-03-17 13:12:00,
2013-03-17 06:22:00,32.0,30.0,-100.00,WNW,295,23.0,29.0,91,-99.99,,,-99.99,,2013-03-17 13:22:00,
2013-03-17 06:32:00,33.0,30.0,-100.00,WNW,291,20.0,26.0,89,-99.99,,,-99.99,,2013-03-17 13:32:00,
2013-03-17 06:42:00,32.0,29.0,-100.00,WNW,295,22.0,31.0,86,-99.99,,,-99.99,,2013-03-17 13:42:00,
2013-03-17 06:52:00,32.0,29.0,-100.00,WNW,294,26.0,35.0,85,-99.99,,,-99.99,,2013-03-17 13:52:00,
2013-03-17 07:02:00,32.0,28.0,-100.00,WNW,287,27.0,37.0,83,-99.99,,,-99.99,,2013-03-17 14:02:00,
2013-03-17 07:12:00,32.0,28.0,-100.00,WNW,288,23.0,31.0,85,-99.99,,,-99.99,,2013-03-17 14:12:00,
2013-03-17 07:22:00,32.0,28.0,-100.00,WNW,294,11.0,17.0,85,-99.99,,,-99.99,,2013-03-17 14:22:00,
2013-03-17 07:32:00,32.0,27.0,-100.00,West,270,7.0,10.0,81,-99.99,,,-99.99,,2013-03-17 14:32:00,
2013-03-17 07:42:00,32.0,27.0,-100.00,NW,316,10.0,16.0,82,-99.99,,,-99.99,,2013-03-17 14:42:00,
2013-03-17 07:52:00,32.0,28.0,-100.00,NW,305,14.0,22.0,87,-99.99,,,-99.99,,2013-03-17 14:52:00,
2013-03-17 08:02:00,31.0,31.0,-100.00,WNW,299,16.0,21.0,98,-99.99,,,-99.99,,2013-03-17 15:02:00,
2013-03-17 08:12:00,31.0,31.0,-100.00,WNW,294,10.0,14.0,100,-99.99,,,-99.99,,2013-03-17 15:12:00,
2013-03-17 08:22:00,32.0,32.0,-100.00,NW,323,11.0,13.0,99,-99.99,,,-99.99,,2013-03-17 15:22:00,
2013-03-17 08:32:00,32.0,30.0,-100.00,NW,304,13.0,20.0,91,-99.99,,,-99.99,,2013-03-17 15:32:00,
2013-03-17 08:42:00,32.0,29.0,-100.00,WNW,298,15.0,23.0,89,-99.99,,,-99.99,,2013-03-17 15:42:00,
2013-03-17 08:52:00,32.0,29.0,-100.00,WNW,303,15.0,21.0,87,-99.99,,,-99.99,,2013-03-17 15:52:00,
2013-03-17 09:03:00,32.0,29.0,-100.00,WNW,303,15.0,21.0,87,-99.99,,,-99.99,,2013-03-17 16:03:00,
2013-03-17 09:12:00,33.0,31.0,-100.00,WNW,297,18.0,22.0,91,-99.99,,,-99.99,,2013-03-17 16:12:00,
2013-03-17 09:22:00,33.0,30.0,-100.00,WNW,284,15.0,19.0,86,-99.99,,,-99.99,,2013-03-17 16:22:00,
2013-03-17 09:33:00,33.0,28.0,-100.00,WNW,287,15.0,20.0,80,-99.99,,,-99.99,,2013-03-17 16:33:00,
2013-03-17 09:42:00,34.0,28.0,-100.00,WNW,288,15.0,21.0,79,-99.99,,,-99.99,,2013-03-17 16:42:00,
2013-03-17 09:52:00,34.0,28.0,-100.00,WNW,285,15.0,18.0,77,-99.99,,,-99.99,,2013-03-17 16:52:00,
2013-03-17 10:02:00,34.0,28.0,-100.00,WNW,289,17.0,22.0,78,-99.99,,,-99.99,,2013-03-17 17:02:00,
2013-03-17 10:12:00,34.0,29.0,-100.00,WNW,295,22.0,29.0,81,-99.99,,,-99.99,,2013-03-17 17:12:00,
2013-03-17 10:22:00,34.0,29.0,-100.00,WNW,285,23.0,34.0,80,-99.99,,,-99.99,,2013-03-17 17:22:00,
2013-03-17 10:33:00,34.0,29.0,-100.00,WNW,282,27.0,33.0,80,-99.99,,,-99.99,,2013-03-17 17:33:00,
2013-03-17 10:42:00,34.0,29.0,-100.00,WNW,283,30.0,39.0,82,-99.99,,,-99.99,,2013-03-17 17:42:00,
2013-03-17 10:52:00,35.0,30.0,-100.00,WNW,284,26.0,35.0,83,-99.99,,,-99.99,,2013-03-17 17:52:00,
2013-03-17 11:02:00,36.0,29.0,-100.00,WNW,284,24.0,31.0,76,-99.99,,,-99.99,,2013-03-17 18:02:00,
2013-03-17 11:12:00,36.0,28.0,-100.00,WNW,283,25.0,35.0,75,-99.99,,,-99.99,,2013-03-17 18:12:00,
2013-03-17 11:22:00,36.0,28.0,-100.00,WNW,287,25.0,33.0,73,-99.99,,,-99.99,,2013-03-17 18:22:00,
2013-03-17 11:32:00,36.0,28.0,-100.00,WNW,292,28.0,37.0,72,-99.99,,,-99.99,,2013-03-17 18:32:00,
2013-03-17 11:42:00,35.0,31.0,-100.00,WNW,296,28.0,41.0,84,-99.99,,,-99.99,,2013-03-17 18:42:00,
2013-03-17 11:52:00,35.0,29.0,-100.00,WNW,287,32.0,39.0,77,-99.99,,,-99.99,,2013-03-17 18:52:00,
2013-03-17 12:02:00,35.0,29.0,-100.00,WNW,287,32.0,39.0,77,-99.99,,,-99.99,,2013-03-17 19:02:00,
2013-03-17 12:12:00,37.0,29.0,-100.00,West,281,23.0,31.0,75,-99.99,,,-99.99,,2013-03-17 19:12:00,
2013-03-17 12:22:00,37.0,29.0,-100.00,WNW,284,27.0,32.0,74,-99.99,,,-99.99,,2013-03-17 19:22:00,
2013-03-17 12:32:00,37.0,29.0,-100.00,WNW,284,28.0,35.0,71,-99.99,,,-99.99,,2013-03-17 19:32:00,
2013-03-17 12:41:00,37.0,29.0,-100.00,WNW,283,28.0,35.0,72,-99.99,,,-99.99,,2013-03-17 19:41:00,
2013-03-17 12:53:00,38.0,30.0,-100.00,West,281,26.0,32.0,73,-99.99,,,-99.99,,2013-03-17 19:53:00,
2013-03-17 13:02:00,37.0,30.0,-100.00,West,278,26.0,34.0,74,-99.99,,,-99.99,,2013-03-17 20:02:00,
2013-03-17 13:12:00,37.0,30.0,-100.00,West,278,25.0,29.0,75,-99.99,,,-99.99,,2013-03-17 20:12:00,
2013-03-17 13:22:00,37.0,31.0,-100.00,West,277,28.0,35.0,78,-99.99,,,-99.99,,2013-03-17 20:22:00,
2013-03-17 13:32:00,37.0,31.0,-100.00,West,277,28.0,35.0,78,-99.99,,,-99.99,,2013-03-17 20:32:00,
2013-03-17 13:42:00,37.0,31.0,-100.00,WNW,283,26.0,36.0,77,-99.99,,,-99.99,,2013-03-17 20:42:00,
2013-03-17 13:52:00,38.0,31.0,-100.00,WNW,284,24.0,33.0,74,-99.99,,,-99.99,,2013-03-17 20:52:00,
2013-03-17 14:02:00,40.0,30.0,-100.00,West,277,22.0,28.0,67,-99.99,,,-99.99,,2013-03-17 21:02:00,
2013-03-17 14:12:00,39.0,28.0,-100.00,WNW,284,27.0,36.0,63,-99.99,,,-99.99,,2013-03-17 21:12:00,
2013-03-17 14:22:00,38.0,28.0,-100.00,West,280,23.0,27.0,68,-99.99,,,-99.99,,2013-03-17 21:22:00,
2013-03-17 14:33:00,38.0,28.0,-100.00,West,277,23.0,32.0,65,-99.99,,,-99.99,,2013-03-17 21:33:00,
2013-03-17 14:42:00,38.0,28.0,-100.00,West,276,24.0,34.0,66,-99.99,,,-99.99,,2013-03-17 21:42:00,
2013-03-17 14:52:00,37.0,27.0,-100.00,WNW,283,25.0,33.0,67,-99.99,,,-99.99,,2013-03-17 21:52:00,
2013-03-17 15:02:00,37.0,28.0,-100.00,WNW,283,23.0,28.0,68,-99.99,,,-99.99,,2013-03-17 22:02:00,
2013-03-17 15:12:00,38.0,29.0,-100.00,WNW,288,21.0,27.0,70,-99.99,,,-99.99,,2013-03-17 22:12:00,
2013-03-17 15:23:00,37.0,29.0,-100.00,WNW,290,20.0,24.0,71,-99.99,,,-99.99,,2013-03-17 22:23:00,
2013-03-17 15:33:00,37.0,29.0,-100.00,WNW,291,22.0,26.0,72,-99.99,,,-99.99,,2013-03-17 22:33:00,
2013-03-17 15:42:00,37.0,30.0,-100.00,WNW,288,19.0,23.0,73,-99.99,,,-99.99,,2013-03-17 22:42:00,
2013-03-17 15:52:00,37.0,30.0,-100.00,WNW,290,15.0,19.0,74,-99.99,,,-99.99,,2013-03-17 22:52:00,
2013-03-17 16:02:00,37.0,31.0,-100.00,WNW,300,17.0,22.0,76,-99.99,,,-99.99,,2013-03-17 23:02:00,
2013-03-17 16:12:00,37.0,31.0,-100.00,WNW,297,18.0,23.0,76,-99.99,,,-99.99,,2013-03-17 23:12:00,
2013-03-17 16:22:00,37.0,30.0,-100.00,WNW,300,20.0,26.0,76,-99.99,,,-99.99,,2013-03-17 23:22:00,
2013-03-17 16:32:00,36.0,31.0,-100.00,WNW,301,19.0,25.0,80,-99.99,,,-99.99,,2013-03-17 23:32:00,
2013-03-17 16:42:00,36.0,32.0,-100.00,WNW,295,22.0,28.0,81,-99.99,,,-99.99,,2013-03-17 23:42:00,
2013-03-17 16:52:00,37.0,32.0,-100.00,WNW,292,23.0,28.0,81,-99.99,,,-99.99,,2013-03-17 23:52:00,
2013-03-17 17:02:00,37.0,31.0,-100.00,WNW,293,22.0,27.0,80,-99.99,,,-99.99,,2013-03-18 00:02:00,
2013-03-17 17:12:00,37.0,31.0,-100.00,WNW,289,22.0,27.0,80,-99.99,,,-99.99,,2013-03-18 00:12:00,
2013-03-17 17:22:00,37.0,31.0,-100.00,WNW,289,19.0,23.0,80,-99.99,,,-99.99,,2013-03-18 00:22:00,
2013-03-17 17:32:00,37.0,31.0,-100.00,West,276,18.0,27.0,78,-99.99,,,-99.99,,2013-03-18 00:32:00,
2013-03-17 17:42:00,37.0,31.0,-100.00,West,276,18.0,27.0,78,-99.99,,,-99.99,,2013-03-18 00:42:00,
2013-03-17 17:52:00,37.0,31.0,-100.00,West,274,16.0,23.0,78,-99.99,,,-99.99,,2013-03-18 00:52:00,
2013-03-17 18:01:00,37.0,31.0,-100.00,West,267,15.0,19.0,79,-99.99,,,-99.99,,2013-03-18 01:01:00,
2013-03-17 18:12:00,37.0,31.0,-100.00,West,275,17.0,20.0,80,-99.99,,,-99.99,,2013-03-18 01:12:00,
2013-03-17 18:22:00,37.0,31.0,-100.00,West,278,17.0,22.0,81,-99.99,,,-99.99,,2013-03-18 01:22:00,
2013-03-17 18:32:00,36.0,31.0,-100.00,West,279,20.0,24.0,80,-99.99,,,-99.99,,2013-03-18 01:32:00,
2013-03-17 18:42:00,36.0,32.0,-100.00,WNW,290,22.0,25.0,82,-99.99,,,-99.99,,2013-03-18 01:42:00,
2013-03-17 18:52:00,36.0,32.0,-100.00,West,280,22.0,27.0,82,-99.99,,,-99.99,,2013-03-18 01:52:00,
2013-03-17 19:02:00,36.0,32.0,-100.00,WNW,287,22.0,26.0,83,-99.99,,,-99.99,,2013-03-18 02:02:00,
2013-03-17 19:12:00,36.0,32.0,-100.00,WNW,282,24.0,30.0,83,-99.99,,,-99.99,,2013-03-18 02:12:00,
2013-03-17 19:22:00,36.0,31.0,-100.00,West,278,22.0,27.0,83,-99.99,,,-99.99,,2013-03-18 02:22:00,
2013-03-17 19:32:00,36.0,31.0,-100.00,WNW,282,25.0,30.0,83,-99.99,,,-99.99,,2013-03-18 02:32:00,
2013-03-17 19:42:00,36.0,31.0,-100.00,West,280,25.0,30.0,83,-99.99,,,-99.99,,2013-03-18 02:42:00,
2013-03-17 19:52:00,35.0,31.0,-100.00,WNW,282,22.0,26.0,83,-99.99,,,-99.99,,2013-03-18 02:52:00,
2013-03-17 20:02:00,36.0,31.0,-100.00,WNW,283,23.0,28.0,83,-99.99,,,-99.99,,2013-03-18 03:02:00,
2013-03-17 20:11:00,35.0,30.0,-100.00,West,281,23.0,29.0,81,-99.99,,,-99.99,,2013-03-18 03:11:00,
2013-03-17 20:22:00,35.0,30.0,-100.00,WNW,282,24.0,32.0,83,-99.99,,,-99.99,,2013-03-18 03:22:00,
2013-03-17 20:32:00,34.0,32.0,-100.00,WNW,282,26.0,32.0,92,-99.99,,,-99.99,,2013-03-18 03:32:00,
2013-03-17 20:42:00,34.0,32.0,-100.00,West,281,28.0,35.0,93,-99.99,,,-99.99,,2013-03-18 03:42:00,
2013-03-17 20:52:00,34.0,32.0,-100.00,West,278,29.0,37.0,92,-99.99,,,-99.99,,2013-03-18 03:52:00,
2013-03-17 21:02:00,34.0,32.0,-100.00,West,276,30.0,36.0,92,-99.99,,,-99.99,,2013-03-18 04:02:00,
2013-03-17 21:12:00,34.0,32.0,-100.00,West,277,28.0,36.0,91,-99.99,,,-99.99,,2013-03-18 04:12:00,
2013-03-17 21:22:00,34.0,31.0,-100.00,West,278,32.0,41.0,89,-99.99,,,-99.99,,2013-03-18 04:22:00,
2013-03-17 21:33:00,34.0,30.0,-100.00,West,275,34.0,41.0,85,-99.99,,,-99.99,,2013-03-18 04:33:00,
2013-03-17 21:42:00,34.0,29.0,-100.00,West,276,32.0,43.0,84,-99.99,,,-99.99,,2013-03-18 04:42:00,
2013-03-17 21:52:00,34.0,30.0,-100.00,West,275,33.0,40.0,84,-99.99,,,-99.99,,2013-03-18 04:52:00,
2013-03-17 22:02:00,34.0,29.0,-100.00,West,279,29.0,35.0,84,-99.99,,,-99.99,,2013-03-18 05:02:00,
2013-03-17 22:12:00,34.0,29.0,-100.00,West,277,26.0,35.0,84,-99.99,,,-99.99,,2013-03-18 05:12:00,
2013-03-17 22:22:00,34.0,29.0,-100.00,West,278,27.0,32.0,82,-99.99,,,-99.99,,2013-03-18 05:22:00,
2013-03-17 22:32:00,33.0,28.0,-100.00,West,278,24.0,34.0,81,-99.99,,,-99.99,,2013-03-18 05:32:00,
2013-03-17 22:43:00,33.0,28.0,-100.00,West,280,22.0,28.0,81,-99.99,,,-99.99,,2013-03-18 05:43:00,
2013-03-17 22:52:00,33.0,29.0,-100.00,West,279,25.0,31.0,82,-99.99,,,-99.99,,2013-03-18 05:52:00,
2013-03-17 23:02:00,33.0,29.0,-100.00,WNW,282,22.0,27.0,82,-99.99,,,-99.99,,2013-03-18 06:02:00,
2013-03-17 23:12:00,33.0,29.0,-100.00,West,280,20.0,27.0,84,-99.99,,,-99.99,,2013-03-18 06:12:00,
2013-03-17 23:22:00,33.0,29.0,-100.00,West,278,18.0,23.0,86,-99.99,,,-99.99,,2013-03-18 06:22:00,
2013-03-17 23:32:00,33.0,30.0,-100.00,West,279,17.0,22.0,88,-99.99,,,-99.99,,2013-03-18 06:32:00,
2013-03-17 23:42:00,33.0,31.0,-100.00,West,280,17.0,21.0,90,-99.99,,,-99.99,,2013-03-18 06:42:00,
2013-03-17 23:52:00,33.0,31.0,-100.00,West,281,19.0,23.0,91,-99.99,,,-99.99,,2013-03-18 06:52:00,